Time;durP1;ratioP1;P1;durP2;ratioP2;P2;SDS_P1;SDS_P2;PMS_P1;PMS_P2;Temp;Humidity;BMP_temperature;BMP_pressure;BME280_temperature;BME280_humidity;BME280_pressure;Samples;Min_cycle;Max_cycle;Signal;HPM_P1;HPM_P2
2022/11/05 00:10:16;;;;;;;12.65;6.30;;;5.50;99.90;;;;;;5068185;28;20052;-66
2022/11/05 00:18:10;;;;;;;11.32;5.85;;;5.60;99.90;;;;;;5069447;28;20083;-67
2022/11/05 00:20:36;;;;;;;9.73;6.00;;;5.50;99.90;;;;;;5045760;28;20049;-67
2022/11/05 00:25:58;;;;;;;14.25;5.53;;;5.50;99.90;;;;;;5050446;28;20057;-67
2022/11/05 00:28:26;;;;;;;13.35;5.63;;;5.80;99.90;;;;;;5063884;28;20049;-66
2022/11/05 00:30:52;;;;;;;12.13;5.68;;;5.90;99.90;;;;;;5067127;28;20096;-66
2022/11/05 00:33:18;;;;;;;14.07;5.50;;;5.90;99.90;;;;;;5049740;28;20041;-66
2022/11/05 00:35:45;;;;;;;14.85;6.07;;;6.10;99.90;;;;;;5049588;28;20564;-67
2022/11/05 00:38:11;;;;;;;13.60;4.80;;;6.40;99.90;;;;;;5064602;28;20520;-67
2022/11/05 00:40:37;;;;;;;9.13;4.47;;;6.60;99.90;;;;;;5066794;28;20052;-67
2022/11/05 00:45:46;;;;;;;8.13;3.75;;;6.80;99.90;;;;;;5072343;28;20119;-67
2022/11/05 00:50:56;;;;;;;12.50;4.13;;;6.90;99.90;;;;;;5067709;28;20083;-67
2022/11/05 00:53:22;;;;;;;8.15;3.28;;;6.90;99.90;;;;;;5084484;28;20056;-66
2022/11/05 00:55:48;;;;;;;7.10;2.63;;;6.90;99.90;;;;;;5087484;28;20045;-66
2022/11/05 00:58:16;;;;;;;6.82;2.50;;;6.90;99.90;;;;;;5086785;28;20040;-67
2022/11/05 01:00:47;;;;;;;7.93;2.92;;;6.80;99.90;;;;;;5070590;28;20036;-67
2022/11/05 01:03:15;;;;;;;9.32;3.20;;;6.90;99.90;;;;;;5069447;28;20053;-67
2022/11/05 01:05:53;;;;;;;7.57;3.30;;;6.90;99.90;;;;;;5067143;28;20047;-66
2022/11/05 01:08:20;;;;;;;10.63;4.63;;;6.90;99.90;;;;;;5067698;28;20044;-66
2022/11/05 01:10:49;;;;;;;10.20;2.78;;;6.80;99.90;;;;;;5069643;28;20072;-67
2022/11/05 01:13:20;;;;;;;8.00;3.25;;;6.70;99.90;;;;;;5086515;28;20044;-66
2022/11/05 01:15:46;;;;;;;13.45;3.30;;;6.70;99.90;;;;;;5070910;28;20130;-67
2022/11/05 01:18:12;;;;;;;6.47;3.58;;;6.60;99.90;;;;;;5097882;28;20051;-67
2022/11/05 01:20:38;;;;;;;10.65;4.00;;;6.60;99.90;;;;;;5069618;28;20052;-67
2022/11/05 01:23:04;;;;;;;10.68;3.55;;;6.70;99.90;;;;;;5089893;28;20079;-67
2022/11/05 01:25:30;;;;;;;12.35;3.78;;;6.70;99.90;;;;;;5080425;28;20074;-67
2022/11/05 01:27:56;;;;;;;7.43;3.45;;;6.60;99.90;;;;;;5084073;28;20040;-66
2022/11/05 01:30:22;;;;;;;9.23;2.95;;;6.60;99.90;;;;;;5088549;28;20536;-66
2022/11/05 01:32:48;;;;;;;11.10;3.65;;;6.60;99.90;;;;;;5069587;28;20056;-67
2022/11/05 01:35:16;;;;;;;7.75;3.95;;;6.60;99.90;;;;;;5059332;28;20102;-66
2022/11/05 01:37:42;;;;;;;10.25;3.58;;;6.60;99.90;;;;;;5058961;28;20254;-67
2022/11/05 01:40:19;;;;;;;11.82;3.90;;;6.60;99.90;;;;;;5084247;28;20047;-67
2022/11/05 01:42:45;;;;;;;9.23;3.67;;;6.60;99.90;;;;;;5065912;28;20044;-66
2022/11/05 01:45:23;;;;;;;14.55;4.30;;;6.60;99.90;;;;;;5082618;28;20068;-66
2022/11/05 01:47:52;;;;;;;8.82;3.42;;;6.70;99.90;;;;;;5083483;28;20065;-66
2022/11/05 01:50:36;;;;;;;8.90;3.83;;;6.70;99.90;;;;;;5084208;28;20139;-67
2022/11/05 01:53:16;;;;;;;6.18;3.70;;;6.60;99.90;;;;;;5083476;28;20420;-67
2022/11/05 01:55:59;;;;;;;15.23;4.57;;;6.60;99.90;;;;;;5066034;28;20508;-67
2022/11/05 01:58:31;;;;;;;8.65;4.53;;;6.50;99.90;;;;;;5055212;28;20044;-66
2022/11/05 02:00:56;;;;;;;9.65;3.88;;;6.50;99.90;;;;;;5081973;28;20105;-66
2022/11/05 02:03:23;;;;;;;8.88;3.88;;;6.50;99.90;;;;;;5049504;28;20057;-67
2022/11/05 02:05:51;;;;;;;12.50;4.53;;;6.40;99.90;;;;;;5067430;28;20047;-67
2022/11/05 02:08:41;;;;;;;13.65;4.68;;;6.50;99.90;;;;;;5085850;28;20094;-67
2022/11/05 02:11:07;;;;;;;10.93;4.20;;;6.40;99.90;;;;;;5084640;28;20045;-66
2022/11/05 02:13:35;;;;;;;12.15;5.20;;;6.50;99.90;;;;;;5066012;28;20079;-67
2022/11/05 02:16:15;;;;;;;13.52;5.07;;;6.40;99.90;;;;;;5083471;28;20044;-67
2022/11/05 02:19:14;;;;;;;9.77;4.97;;;6.40;99.90;;;;;;5063329;28;20044;-67
2022/11/05 02:22:23;;;;;;;12.07;4.63;;;6.30;99.90;;;;;;5068448;28;20104;-67
2022/11/05 02:25:13;;;;;;;8.85;4.75;;;6.30;99.90;;;;;;5075077;28;20178;-66
2022/11/05 02:27:56;;;;;;;9.80;5.00;;;6.20;99.90;;;;;;5084937;28;20048;-67
2022/11/05 02:30:38;;;;;;;13.15;5.93;;;6.10;99.90;;;;;;5085696;28;20462;-67
2022/11/05 02:33:28;;;;;;;12.15;5.00;;;6.10;99.90;;;;;;5071154;28;20041;-67
2022/11/05 02:36:22;;;;;;;11.50;6.05;;;6.10;99.90;;;;;;5083230;28;20058;-66
2022/11/05 02:38:54;;;;;;;7.93;5.30;;;6.10;99.90;;;;;;5087913;28;20055;-67
2022/11/05 02:41:37;;;;;;;8.50;5.47;;;6.00;99.90;;;;;;5067159;28;20057;-66
2022/11/05 02:44:14;;;;;;;12.38;5.65;;;6.00;99.90;;;;;;5070781;28;20051;-67
2022/11/05 02:46:54;;;;;;;8.80;5.57;;;6.00;99.90;;;;;;5098034;28;20052;-66
2022/11/05 02:49:41;;;;;;;12.60;5.50;;;6.00;99.90;;;;;;5075587;28;20059;-67
2022/11/05 02:52:15;;;;;;;11.18;5.97;;;6.00;99.90;;;;;;5092065;28;20044;-67
2022/11/05 02:55:26;;;;;;;14.35;6.28;;;5.90;99.90;;;;;;5102994;28;20130;-67
2022/11/05 02:57:51;;;;;;;10.32;5.85;;;6.00;99.90;;;;;;5078580;28;20056;-66
2022/11/05 03:00:47;;;;;;;13.05;5.55;;;5.90;99.90;;;;;;5083197;28;20047;-66
2022/11/05 03:03:43;;;;;;;10.20;6.03;;;5.90;99.90;;;;;;5082526;28;20040;-66
2022/11/05 03:06:47;;;;;;;13.27;5.72;;;6.00;99.90;;;;;;5088844;28;20131;-66
2022/11/05 03:09:24;;;;;;;10.80;6.13;;;6.00;99.90;;;;;;5094776;28;20048;-67
2022/11/05 03:12:40;;;;;;;10.27;5.70;;;6.00;99.90;;;;;;5052570;28;20041;-67
2022/11/05 03:15:21;;;;;;;11.98;6.07;;;6.00;99.90;;;;;;5004828;28;20057;-67
2022/11/05 03:18:01;;;;;;;;;;;5.90;99.90;;;;;;5005462;28;20061;-67
2022/11/05 03:20:40;;;;;;;10.25;5.82;;;5.90;99.90;;;;;;5007879;28;20414;-67
2022/11/05 03:23:16;;;;;;;11.52;5.93;;;5.90;99.90;;;;;;4988480;28;20049;-67
2022/11/05 03:25:50;;;;;;;18.48;6.20;;;5.90;99.90;;;;;;4989307;28;20690;-67
2022/11/05 03:28:20;;;;;;;11.57;5.45;;;5.90;99.90;;;;;;5005791;28;20039;-66
2022/11/05 03:30:49;;;;;;;10.73;5.70;;;5.90;99.90;;;;;;5006858;28;20062;-67
2022/11/05 03:33:19;;;;;;;10.60;5.97;;;5.80;99.90;;;;;;4989038;28;20050;-67
2022/11/05 03:35:50;;;;;;;11.93;5.85;;;5.80;99.90;;;;;;5005760;28;20057;-66
2022/11/05 03:38:26;;;;;;;11.70;6.18;;;5.80;99.90;;;;;;4989342;28;20106;-67
2022/11/05 03:40:56;;;;;;;10.45;5.70;;;5.70;99.90;;;;;;5004433;28;20056;-67
2022/11/05 03:43:26;;;;;;;11.80;6.32;;;5.80;99.90;;;;;;4999572;28;20069;-66
2022/11/05 03:45:58;;;;;;;10.23;6.00;;;5.80;99.90;;;;;;5003350;28;20210;-67
2022/11/05 03:48:27;;;;;;;11.27;5.80;;;5.80;99.90;;;;;;5004591;28;20128;-67
2022/11/05 03:51:07;;;;;;;17.45;6.28;;;5.80;99.90;;;;;;5033094;28;20110;-67
2022/11/05 03:53:41;;;;;;;11.37;5.97;;;5.70;99.90;;;;;;5075623;28;20614;-67
2022/11/05 03:56:25;;;;;;;11.38;6.40;;;5.70;99.90;;;;;;5067439;28;20059;-67
2022/11/05 03:58:52;;;;;;;10.02;5.82;;;5.70;99.90;;;;;;5089194;28;20044;-67
2022/11/05 04:01:17;;;;;;;11.35;6.05;;;5.50;99.90;;;;;;5061091;28;20150;-66
2022/11/05 04:03:43;;;;;;;14.43;6.80;;;5.60;99.90;;;;;;5051134;28;20063;-66
2022/11/05 04:14:23;;;;;;;12.75;6.78;;;5.60;99.90;;;;;;5077305;28;20098;-67
2022/11/05 04:17:08;;;;;;;12.45;6.65;;;5.50;99.90;;;;;;5082708;28;20040;-67
2022/11/05 04:25:11;;;;;;;10.68;7.13;;;5.60;99.90;;;;;;5080625;28;20136;-67
2022/11/05 04:27:36;;;;;;;13.98;6.82;;;5.60;99.90;;;;;;5057786;28;20048;-67
2022/11/05 04:30:18;;;;;;;9.93;6.65;;;5.70;99.90;;;;;;5085188;28;20093;-67
2022/11/05 04:33:05;;;;;;;12.40;7.07;;;5.60;99.90;;;;;;5067140;28;20100;-66
2022/11/05 04:35:42;;;;;;;13.60;7.47;;;5.70;99.90;;;;;;5095149;28;20110;-67
2022/11/05 04:38:10;;;;;;;14.68;6.88;;;5.70;99.90;;;;;;5074464;28;20047;-66
2022/11/05 04:40:36;;;;;;;11.75;7.55;;;5.70;99.90;;;;;;5078003;28;20098;-66
2022/11/05 04:43:03;;;;;;;12.90;6.38;;;5.70;99.90;;;;;;5067247;28;20483;-67
2022/11/05 04:45:33;;;;;;;15.15;7.15;;;5.60;99.90;;;;;;5096549;28;20096;-67
2022/11/05 04:47:59;;;;;;;13.27;6.35;;;5.70;99.90;;;;;;5069606;28;20056;-67
2022/11/05 04:50:25;;;;;;;10.57;6.07;;;5.80;99.90;;;;;;5094306;28;20096;-67
2022/11/05 04:52:51;;;;;;;12.10;6.40;;;5.60;99.90;;;;;;5095535;28;20067;-67
2022/11/05 04:55:16;;;;;;;11.07;6.72;;;5.60;99.90;;;;;;5080882;28;20148;-67
2022/11/05 04:57:42;;;;;;;13.13;6.20;;;5.50;99.90;;;;;;5065929;28;20054;-67
2022/11/05 05:00:10;;;;;;;11.73;6.57;;;5.50;99.90;;;;;;5095011;28;20043;-67
2022/11/05 05:02:36;;;;;;;11.43;6.28;;;5.50;99.90;;;;;;5080195;28;20061;-66
2022/11/05 05:05:02;;;;;;;11.98;6.45;;;5.50;99.90;;;;;;5101159;28;20122;-66
2022/11/05 05:07:28;;;;;;;13.10;7.50;;;5.40;99.90;;;;;;5069923;28;20078;-66
2022/11/05 05:09:54;;;;;;;9.68;6.13;;;5.40;99.90;;;;;;5082254;28;20101;-66
2022/11/05 05:12:20;;;;;;;11.20;6.30;;;5.50;99.90;;;;;;5078957;28;20044;-66
2022/11/05 05:14:49;;;;;;;9.93;5.80;;;5.60;99.90;;;;;;5098882;28;20044;-66
2022/11/05 05:17:15;;;;;;;9.95;5.88;;;5.60;99.90;;;;;;5096189;28;20040;-66
2022/11/05 05:22:26;;;;;;;9.27;5.38;;;5.60;99.90;;;;;;5085512;28;20048;-66
2022/11/05 05:24:51;;;;;;;9.90;5.55;;;5.70;99.90;;;;;;5079490;28;20079;-66
2022/11/05 05:27:17;;;;;;;12.02;5.90;;;5.70;99.90;;;;;;5096544;28;20040;-66
2022/11/05 05:29:43;;;;;;;10.43;5.30;;;5.80;99.90;;;;;;5083596;28;20044;-66
2022/11/05 05:32:09;;;;;;;10.95;5.65;;;5.70;99.90;;;;;;5099268;28;20110;-67
2022/11/05 05:34:34;;;;;;;10.63;5.75;;;5.80;99.90;;;;;;5080920;28;20044;-66
2022/11/05 05:37:00;;;;;;;9.20;5.45;;;5.80;99.90;;;;;;5095246;28;20071;-66
2022/11/05 05:39:26;;;;;;;12.93;6.25;;;5.80;99.90;;;;;;5081669;28;20039;-66
2022/11/05 05:41:52;;;;;;;12.35;5.40;;;5.80;99.90;;;;;;5090319;28;20044;-66
2022/11/05 05:44:18;;;;;;;10.90;5.47;;;5.70;99.90;;;;;;5099608;28;20044;-66
2022/11/05 05:46:43;;;;;;;8.43;5.25;;;5.80;99.90;;;;;;5088220;28;20060;-66
2022/11/05 05:49:12;;;;;;;13.98;5.63;;;5.70;99.90;;;;;;5065874;28;20103;-66
2022/11/05 05:51:38;;;;;;;11.75;6.13;;;5.70;99.90;;;;;;5099419;28;20048;-66
2022/11/05 05:54:04;;;;;;;9.80;5.30;;;5.70;99.90;;;;;;5095107;28;20048;-66
2022/11/05 05:56:30;;;;;;;6.97;4.95;;;5.60;99.90;;;;;;5101823;28;20048;-66
2022/11/05 05:58:56;;;;;;;11.57;5.97;;;5.50;99.90;;;;;;5101669;28;20487;-66
2022/11/05 06:01:21;;;;;;;9.27;5.22;;;5.50;99.90;;;;;;5084258;28;20100;-66
2022/11/05 06:03:48;;;;;;;9.45;6.35;;;5.40;99.90;;;;;;5101819;28;20400;-66
2022/11/05 06:06:18;;;;;;;9.75;5.60;;;5.50;99.90;;;;;;5084466;28;20044;-66
2022/11/05 06:08:44;;;;;;;15.40;5.88;;;5.50;99.90;;;;;;5082571;28;20036;-66
2022/11/05 06:11:10;;;;;;;8.40;5.63;;;5.50;99.90;;;;;;5080994;28;20044;-66
2022/11/05 06:13:36;;;;;;;9.40;5.68;;;5.50;99.90;;;;;;5068329;28;20040;-66
2022/11/05 06:16:04;;;;;;;11.55;6.65;;;5.50;99.90;;;;;;5071493;28;20271;-66
2022/11/05 06:18:30;;;;;;;10.07;5.13;;;5.50;99.90;;;;;;5087017;28;20056;-66
2022/11/05 06:21:04;;;;;;;7.90;5.47;;;5.50;99.90;;;;;;5069022;28;20036;-66
2022/11/05 06:23:31;;;;;;;12.27;5.95;;;5.40;99.90;;;;;;5065785;28;20071;-66
2022/11/05 06:26:01;;;;;;;11.50;5.82;;;5.50;99.90;;;;;;5070832;28;20048;-66
2022/11/05 06:28:28;;;;;;;10.70;5.45;;;5.40;99.90;;;;;;5065863;28;20099;-66
2022/11/05 06:30:54;;;;;;;12.65;6.00;;;5.50;99.90;;;;;;5070026;28;20048;-66
2022/11/05 06:33:20;;;;;;;8.05;5.80;;;5.40;99.90;;;;;;5068605;28;20510;-66
2022/11/05 06:35:46;;;;;;;12.00;6.07;;;5.50;99.90;;;;;;5047716;28;20065;-66
2022/11/05 06:38:11;;;;;;;9.20;6.15;;;5.50;99.90;;;;;;5064000;28;20052;-66
2022/11/05 06:40:37;;;;;;;9.65;6.20;;;5.40;99.90;;;;;;5090583;28;20048;-66
2022/11/05 06:43:03;;;;;;;9.07;5.80;;;5.40;99.90;;;;;;5072062;28;20052;-66
2022/11/05 06:45:28;;;;;;;17.15;6.88;;;5.50;99.90;;;;;;5092491;28;20032;-66
2022/11/05 06:47:55;;;;;;;11.50;7.68;;;5.40;99.90;;;;;;5085485;28;20561;-66
2022/11/05 06:50:22;;;;;;;15.68;9.18;;;5.50;99.90;;;;;;5074740;28;20052;-66
2022/11/05 06:52:55;;;;;;;12.88;6.28;;;5.50;99.90;;;;;;5053685;28;20458;-66
2022/11/05 06:55:22;;;;;;;11.55;6.78;;;5.40;99.90;;;;;;5068605;28;20071;-67
2022/11/05 06:57:48;;;;;;;10.18;6.15;;;5.50;99.90;;;;;;5072415;28;20080;-66
2022/11/05 07:00:14;;;;;;;9.45;6.43;;;5.60;99.90;;;;;;5072035;28;20045;-67
2022/11/05 07:02:40;;;;;;;12.57;5.97;;;5.60;99.90;;;;;;5079913;28;20054;-67
2022/11/05 07:05:09;;;;;;;10.23;5.32;;;5.50;99.90;;;;;;5068076;28;20076;-67
2022/11/05 07:07:36;;;;;;;9.53;5.37;;;5.60;99.90;;;;;;5083685;28;20499;-64
2022/11/05 07:10:03;;;;;;;8.93;5.90;;;5.60;99.90;;;;;;5085713;28;20402;-64
2022/11/05 07:12:29;;;;;;;11.23;6.13;;;5.60;99.90;;;;;;5070489;28;20028;-64
2022/11/05 07:14:54;;;;;;;9.45;5.78;;;5.70;99.90;;;;;;5070137;28;20048;-63
2022/11/05 07:17:21;;;;;;;11.18;5.20;;;5.80;99.90;;;;;;5100128;28;20048;-64
2022/11/05 07:19:46;;;;;;;12.48;5.63;;;5.70;99.90;;;;;;5067820;28;20110;-66
2022/11/05 07:22:12;;;;;;;11.63;5.50;;;5.70;99.90;;;;;;5086621;28;20048;-68
2022/11/05 07:24:38;;;;;;;9.57;5.55;;;5.80;99.90;;;;;;5098657;28;20052;-69
2022/11/05 07:27:03;;;;;;;9.40;5.47;;;5.80;99.90;;;;;;5094033;28;20037;-69
2022/11/05 07:29:29;;;;;;;9.05;5.78;;;5.80;99.90;;;;;;5088863;28;20094;-68
2022/11/05 07:31:55;;;;;;;10.55;5.70;;;5.90;99.90;;;;;;5086864;28;20072;-68
2022/11/05 07:34:20;;;;;;;12.88;5.68;;;5.90;99.90;;;;;;5089649;28;20054;-69
2022/11/05 07:36:46;;;;;;;11.27;5.90;;;6.00;99.90;;;;;;5067561;28;20045;-69
2022/11/05 07:39:12;;;;;;;12.43;6.50;;;6.00;99.90;;;;;;5087658;28;20051;-69
2022/11/05 07:41:37;;;;;;;10.07;5.95;;;6.00;99.90;;;;;;5091683;28;20492;-68
2022/11/05 07:44:03;;;;;;;11.18;5.90;;;6.10;99.90;;;;;;5073607;28;20052;-69
2022/11/05 07:46:30;;;;;;;7.88;5.95;;;6.20;99.90;;;;;;5105495;28;20044;-71
2022/11/05 07:48:55;;;;;;;11.15;6.55;;;6.20;99.90;;;;;;5089780;28;20044;-70
2022/11/05 07:51:21;;;;;;;11.63;7.00;;;6.20;99.90;;;;;;5068017;28;20054;-70
2022/11/05 07:53:47;;;;;;;11.70;6.53;;;6.20;99.90;;;;;;5083426;28;20052;-69
2022/11/05 07:56:14;;;;;;;8.32;6.43;;;6.30;99.90;;;;;;5106134;28;20048;-70
2022/11/05 07:58:40;;;;;;;9.85;6.65;;;6.30;99.90;;;;;;5085538;28;20048;-69
2022/11/05 08:01:06;;;;;;;8.77;6.68;;;6.40;99.90;;;;;;5069123;28;20135;-70
2022/11/05 08:03:32;;;;;;;9.30;6.30;;;6.40;99.90;;;;;;5088576;28;20055;-64
2022/11/05 08:05:58;;;;;;;13.57;6.53;;;6.40;99.90;;;;;;5106086;28;20064;-64
2022/11/05 08:08:24;;;;;;;10.05;7.00;;;6.60;99.90;;;;;;5085811;28;20052;-64
2022/11/05 08:10:50;;;;;;;10.32;6.90;;;6.60;99.90;;;;;;5093514;28;20118;-64
2022/11/05 08:13:16;;;;;;;9.70;6.70;;;6.60;99.90;;;;;;5087235;28;20040;-64
2022/11/05 08:15:43;;;;;;;8.48;6.82;;;6.70;99.90;;;;;;5098540;28;20460;-63
2022/11/05 08:18:14;;;;;;;8.07;6.45;;;6.80;99.90;;;;;;5067142;28;20386;-64
2022/11/05 08:20:41;;;;;;;8.88;6.35;;;6.90;99.90;;;;;;5084702;28;20108;-64
2022/11/05 08:23:06;;;;;;;11.82;7.38;;;7.00;99.90;;;;;;5084762;28;20071;-63
2022/11/05 08:25:32;;;;;;;9.00;6.20;;;7.10;99.90;;;;;;5105613;28;20048;-64
2022/11/05 08:28:00;;;;;;;8.70;6.75;;;7.10;99.90;;;;;;5094883;28;20041;-65
2022/11/05 08:30:27;;;;;;;10.25;6.22;;;7.20;99.90;;;;;;5096316;28;20106;-62
2022/11/05 08:32:58;;;;;;;11.15;6.78;;;7.30;99.90;;;;;;5067738;28;20048;-64
2022/11/05 08:35:25;;;;;;;11.82;6.40;;;7.40;99.90;;;;;;5084898;28;20040;-64
2022/11/05 08:37:56;;;;;;;9.10;5.90;;;7.50;99.90;;;;;;5086747;28;20092;-65
2022/11/05 08:40:21;;;;;;;8.73;6.07;;;7.50;99.90;;;;;;5061851;28;20045;-64
2022/11/05 08:42:47;;;;;;;11.75;6.28;;;7.60;99.90;;;;;;5077287;28;20040;-63
2022/11/05 08:45:13;;;;;;;9.65;6.45;;;7.70;99.90;;;;;;5068618;28;20049;-63
2022/11/05 08:47:38;;;;;;;9.07;6.70;;;7.80;99.90;;;;;;5068605;28;20101;-63
2022/11/05 08:50:04;;;;;;;10.90;7.20;;;7.80;99.90;;;;;;5102671;28;20048;-65
2022/11/05 08:52:31;;;;;;;11.98;6.50;;;7.80;99.90;;;;;;5082539;28;20047;-64
2022/11/05 08:54:56;;;;;;;9.80;6.32;;;8.00;99.90;;;;;;5078638;28;20052;-67
2022/11/05 08:57:22;;;;;;;10.27;6.50;;;8.00;99.90;;;;;;5073830;28;20123;-68
2022/11/05 08:59:48;;;;;;;8.40;5.65;;;8.10;99.90;;;;;;5072589;28;20053;-68
2022/11/05 09:02:13;;;;;;;11.90;6.28;;;8.10;99.90;;;;;;5036292;28;20048;-68
2022/11/05 09:04:39;;;;;;;9.38;5.95;;;8.20;99.90;;;;;;5084417;28;20048;-68
2022/11/05 09:07:05;;;;;;;9.02;6.50;;;8.30;99.90;;;;;;5099398;28;20063;-68
2022/11/05 09:09:31;;;;;;;9.02;6.55;;;8.40;99.90;;;;;;5077416;28;20078;-68
2022/11/05 09:11:57;;;;;;;8.68;6.25;;;8.40;99.90;;;;;;5098810;28;20059;-68
2022/11/05 09:14:25;;;;;;;9.40;6.25;;;8.50;99.90;;;;;;5103072;28;20050;-68
2022/11/05 09:16:52;;;;;;;9.38;5.90;;;8.60;99.90;;;;;;5083212;28;20056;-68
2022/11/05 09:19:17;;;;;;;11.38;6.20;;;8.70;99.90;;;;;;5091330;28;20051;-67
2022/11/05 09:21:43;;;;;;;14.40;6.68;;;8.70;99.90;;;;;;5089619;28;20079;-68
2022/11/05 09:24:09;;;;;;;9.43;6.50;;;8.90;99.90;;;;;;5085914;28;20047;-68
2022/11/05 09:26:35;;;;;;;8.35;5.07;;;8.90;99.90;;;;;;5102086;28;20051;-68
2022/11/05 09:29:01;;;;;;;10.68;5.68;;;9.00;99.90;;;;;;5081056;28;20096;-68
2022/11/05 09:31:26;;;;;;;10.23;5.53;;;9.00;99.90;;;;;;5101829;28;20048;-68
2022/11/05 09:33:52;;;;;;;8.32;5.45;;;9.10;99.90;;;;;;5085913;28;20043;-68
2022/11/05 09:36:18;;;;;;;6.95;5.78;;;9.20;99.90;;;;;;5090401;28;20451;-68
2022/11/05 09:38:43;;;;;;;9.30;6.03;;;9.20;99.90;;;;;;5084614;28;20128;-68
2022/11/05 09:41:32;;;;;;;8.95;5.90;;;9.30;99.90;;;;;;5089874;28;20056;-67
2022/11/05 09:44:20;;;;;;;7.53;5.22;;;9.40;99.90;;;;;;5103850;28;20051;-68
2022/11/05 09:46:55;;;;;;;9.85;5.80;;;9.40;99.90;;;;;;5075012;28;20512;-68
2022/11/05 09:49:30;;;;;;;8.10;5.60;;;9.50;99.90;;;;;;5086893;28;20049;-68
2022/11/05 09:51:57;;;;;;;6.28;5.13;;;9.60;99.90;;;;;;5095675;28;20086;-68
2022/11/05 09:54:25;;;;;;;11.73;5.32;;;9.70;99.90;;;;;;5085726;28;20040;-67
2022/11/05 09:56:52;;;;;;;11.02;4.93;;;9.70;99.90;;;;;;5093556;28;20055;-68
2022/11/05 09:59:23;;;;;;;11.05;4.95;;;9.80;99.90;;;;;;5097492;28;20422;-68
2022/11/05 10:01:51;;;;;;;8.27;5.45;;;9.90;99.90;;;;;;5069242;28;20044;-68
2022/11/05 10:04:24;;;;;;;6.88;4.60;;;10.00;99.90;;;;;;5089301;28;20075;-67
2022/11/05 10:07:03;;;;;;;7.05;4.72;;;10.10;99.90;;;;;;5086638;28;20079;-68
2022/11/05 10:09:36;;;;;;;9.23;4.97;;;10.10;99.90;;;;;;5066697;28;20124;-68
2022/11/05 10:12:10;;;;;;;6.85;4.78;;;10.10;99.90;;;;;;5062325;28;20076;-68
2022/11/05 10:14:43;;;;;;;12.68;5.80;;;10.20;99.90;;;;;;5083019;28;20049;-68
2022/11/05 10:17:23;;;;;;;9.82;4.82;;;10.20;99.90;;;;;;5058035;28;20051;-68
2022/11/05 10:19:57;;;;;;;9.32;4.93;;;10.30;99.90;;;;;;5071187;28;20052;-68
2022/11/05 10:22:24;;;;;;;9.15;4.22;;;10.40;99.90;;;;;;5075762;28;20041;-68
2022/11/05 10:24:50;;;;;;;8.05;4.55;;;10.50;99.90;;;;;;5090401;28;20100;-68
2022/11/05 10:27:37;;;;;;;10.20;3.92;;;10.50;99.90;;;;;;5086232;28;20063;-68
2022/11/05 10:30:03;;;;;;;7.20;4.30;;;10.70;99.90;;;;;;5074069;28;20076;-68
2022/11/05 10:32:34;;;;;;;7.50;4.40;;;10.70;99.90;;;;;;5091969;28;20047;-68
2022/11/05 10:35:02;;;;;;;7.32;4.07;;;10.70;99.90;;;;;;5075767;28;20481;-68
2022/11/05 10:37:30;;;;;;;6.93;4.03;;;10.80;99.90;;;;;;5069549;28;20091;-68
2022/11/05 10:39:57;;;;;;;6.00;3.80;;;10.90;99.90;;;;;;5073291;28;20036;-68
2022/11/05 10:43:03;;;;;;;7.05;4.30;;;10.90;99.90;;;;;;5071709;28;20044;-68
2022/11/05 10:45:58;;;;;;;10.70;4.88;;;11.00;99.90;;;;;;4987183;28;20213;-68
2022/11/05 10:48:54;;;;;;;6.07;4.38;;;11.10;99.90;;;;;;4988777;28;20054;-68
2022/11/05 10:51:20;;;;;;;5.68;3.83;;;11.30;99.90;;;;;;4988368;28;20054;-68
2022/11/05 10:53:55;;;;;;;9.10;4.63;;;11.40;99.90;;;;;;4986290;28;20043;-68
2022/11/05 10:56:47;;;;;;;8.20;3.50;;;11.40;99.90;;;;;;4985954;28;20050;-68
2022/11/05 10:59:25;;;;;;;10.10;4.30;;;11.40;99.90;;;;;;4985016;28;20069;-68
2022/11/05 11:02:25;;;;;;;5.75;3.70;;;11.40;99.90;;;;;;4988640;28;20062;-68
2022/11/05 11:04:52;;;;;;;7.07;3.70;;;11.50;99.90;;;;;;5001839;28;20077;-68
2022/11/05 11:07:23;;;;;;;11.70;4.28;;;11.60;99.90;;;;;;4995835;28;20058;-68
2022/11/05 11:09:50;;;;;;;8.52;3.30;;;11.50;99.90;;;;;;4986044;28;20051;-68
2022/11/05 11:12:26;;;;;;;8.07;3.60;;;11.50;99.90;;;;;;5004664;28;20454;-68
2022/11/05 11:15:15;;;;;;;7.47;4.30;;;11.50;99.90;;;;;;5009271;28;20057;-68
2022/11/05 11:17:41;;;;;;;6.77;3.47;;;11.50;99.90;;;;;;4983610;28;20173;-68
2022/11/05 11:20:25;;;;;;;23.90;16.27;;;11.50;99.90;;;;;;5001157;28;20060;-68
2022/11/05 11:23:08;;;;;;;6.70;3.42;;;11.60;99.90;;;;;;5099389;28;20052;-67
2022/11/05 11:25:47;;;;;;;6.05;3.70;;;11.50;99.90;;;;;;5078252;28;20178;-68
2022/11/05 11:28:32;;;;;;;10.80;3.80;;;11.60;99.90;;;;;;5073424;28;20146;-68
2022/11/05 11:31:13;;;;;;;7.80;5.10;;;11.70;99.90;;;;;;5076997;28;20048;-68
2022/11/05 11:33:42;;;;;;;7.32;4.32;;;11.70;99.90;;;;;;5096780;28;20048;-68
2022/11/05 11:36:10;;;;;;;7.05;3.83;;;11.80;99.90;;;;;;5082332;28;20411;-67
2022/11/05 11:38:37;;;;;;;7.32;4.07;;;11.80;99.90;;;;;;5078811;28;20052;-68
2022/11/05 11:41:26;;;;;;;5.68;3.67;;;11.90;99.90;;;;;;5099470;28;20078;-68
2022/11/05 11:44:10;;;;;;;6.60;3.33;;;12.00;99.90;;;;;;5081904;28;20073;-68
2022/11/05 11:46:36;;;;;;;5.07;3.17;;;12.20;99.90;;;;;;5096224;28;20052;-68
2022/11/05 11:49:02;;;;;;;9.77;3.55;;;12.40;99.90;;;;;;5101422;28;20056;-67
2022/11/05 11:51:43;;;;;;;5.05;3.10;;;12.40;99.90;;;;;;5061833;28;20043;-68
2022/11/05 11:54:23;;;;;;;10.75;3.30;;;12.30;99.90;;;;;;5071390;28;20036;-68
2022/11/05 11:56:49;;;;;;;6.03;3.65;;;12.40;99.90;;;;;;5082299;28;20051;-67
2022/11/05 11:59:24;;;;;;;5.97;3.35;;;12.50;99.90;;;;;;5081059;28;20083;-67
2022/11/05 12:02:15;;;;;;;5.85;2.78;;;12.50;99.90;;;;;;5075503;28;20123;-68
2022/11/05 12:04:59;;;;;;;8.52;2.85;;;12.50;99.90;;;;;;5081266;28;20503;-67
2022/11/05 12:07:25;;;;;;;5.93;2.97;;;12.60;99.90;;;;;;5071092;28;20413;-67
2022/11/05 12:09:53;;;;;;;6.88;3.10;;;12.40;99.90;;;;;;5094765;28;20056;-68
2022/11/05 12:12:45;;;;;;;5.43;3.05;;;12.30;99.90;;;;;;5096430;28;20067;-68
2022/11/05 12:15:11;;;;;;;8.00;3.08;;;12.20;99.90;;;;;;5086156;28;20595;-68
2022/11/05 12:17:54;;;;;;;5.45;2.92;;;12.10;99.90;;;;;;5085282;28;20040;-68
2022/11/05 12:20:45;;;;;;;6.93;3.70;;;12.00;99.90;;;;;;5095877;28;20370;-68
2022/11/05 12:23:16;;;;;;;10.40;3.90;;;11.90;99.90;;;;;;5076064;28;20044;-68
2022/11/05 12:26:25;;;;;;;6.57;3.10;;;11.90;99.90;;;;;;5084869;28;20098;-68
2022/11/05 12:28:54;;;;;;;6.32;4.10;;;11.90;99.90;;;;;;4986458;28;20062;-67
2022/11/05 12:31:25;;;;;;;8.68;3.40;;;11.90;99.90;;;;;;4988302;28;20050;-68
2022/11/05 12:33:58;;;;;;;7.07;2.83;;;11.90;99.90;;;;;;4987132;28;20050;-67
2022/11/05 12:36:42;;;;;;;7.03;3.65;;;12.00;99.90;;;;;;4988290;28;20060;-67
2022/11/05 12:39:25;;;;;;;6.93;3.10;;;11.90;99.90;;;;;;4981222;28;20676;-68
2022/11/05 12:42:19;;;;;;;6.35;2.95;;;11.90;99.90;;;;;;4986887;28;20058;-67
2022/11/05 12:44:53;;;;;;;7.65;2.17;;;12.00;99.90;;;;;;5002971;28;20062;-68
2022/11/05 12:47:42;;;;;;;6.60;2.20;;;11.90;99.90;;;;;;4980778;28;20063;-68
2022/11/05 12:50:38;;;;;;;10.43;3.00;;;11.90;99.90;;;;;;5004708;28;20054;-68
2022/11/05 12:53:03;;;;;;;5.70;2.13;;;11.80;99.90;;;;;;4986404;28;20046;-67
2022/11/05 12:55:48;;;;;;;6.22;2.55;;;11.80;99.90;;;;;;4986942;28;20046;-67
2022/11/05 12:58:40;;;;;;;6.43;3.17;;;11.90;99.90;;;;;;4983977;28;20074;-67
2022/11/05 13:01:41;;;;;;;8.05;2.80;;;11.80;99.90;;;;;;4986259;28;20073;-67
2022/11/05 13:04:37;;;;;;;6.32;2.53;;;11.90;99.90;;;;;;4977248;28;20062;-67
2022/11/05 13:07:08;;;;;;;4.75;2.67;;;11.80;99.90;;;;;;4970478;28;20141;-68
2022/11/05 13:09:34;;;;;;;7.75;3.47;;;11.90;99.90;;;;;;5025082;28;20058;-68
2022/11/05 13:12:13;;;;;;;6.50;3.03;;;11.90;99.90;;;;;;4986776;28;20042;-68
2022/11/05 13:14:56;;;;;;;9.13;4.00;;;11.90;99.90;;;;;;5018530;28;20057;-67
2022/11/05 13:17:27;;;;;;;7.07;3.60;;;12.00;99.90;;;;;;5017413;28;20152;-67
2022/11/05 13:20:02;;;;;;;7.05;3.80;;;11.90;99.90;;;;;;5018386;28;20525;-67
2022/11/05 13:22:42;;;;;;;10.70;3.83;;;12.00;99.90;;;;;;5001860;28;20070;-67
2022/11/05 13:25:22;;;;;;;6.78;3.90;;;12.00;99.90;;;;;;5019969;28;20056;-68
2022/11/05 13:28:26;;;;;;;8.95;4.07;;;12.10;99.90;;;;;;4986340;28;20070;-68
2022/11/05 13:30:57;;;;;;;7.65;4.43;;;12.10;99.90;;;;;;5003423;28;20220;-68
2022/11/05 13:33:35;;;;;;;8.38;4.53;;;12.10;99.90;;;;;;5020117;28;20056;-67
2022/11/05 13:39:30;;;;;;;7.68;4.82;;;12.20;99.90;;;;;;4993842;28;20049;-68
2022/11/05 13:42:03;;;;;;;9.85;4.63;;;12.20;99.90;;;;;;5079438;28;20048;-67
2022/11/05 13:44:47;;;;;;;8.50;4.47;;;12.30;99.90;;;;;;5084907;28;20048;-67
2022/11/05 13:47:30;;;;;;;7.72;4.25;;;12.30;99.90;;;;;;5078238;28;20107;-68
2022/11/05 13:50:14;;;;;;;8.82;6.05;;;12.20;99.90;;;;;;5068780;28;20060;-68
2022/11/05 13:52:58;;;;;;;9.25;5.10;;;12.20;99.90;;;;;;5070254;28;20048;-68
2022/11/05 13:55:41;;;;;;;7.90;4.07;;;12.20;99.90;;;;;;5069805;28;20047;-67
2022/11/05 13:58:37;;;;;;;10.02;5.25;;;12.10;99.90;;;;;;5071450;28;20084;-68
2022/11/05 14:01:13;;;;;;;12.43;7.35;;;12.10;99.90;;;;;;5069104;28;20056;-67